Howard, Wisconsin
Current Conditions -  °F | °C
As of 2:53 AM on Saturday 25 Oct 2014 (Local Time) from KGRB Reporting Station
Haze Haze  
Wind Chill: 54°   Ceiling: 1400
Heat Index: 54°   Visibility: 5mi
Dew Point: 52°   Wind: 5mph
Humidity: 93%   Direction: 200°SSW
Pressure: 29.8"   Gusts: NA
Location:  44.5933°N, 88.1103°W
Report Text: KGRB 250753Z AUTO 20004KT 5SM BR OVC014 12/11 A2980 RMK AO2 SLP094 T01220111
Loading
Personal Weather Stations






























Interactive Weather Map
Tropical Storm Tracking
New forecast layout! Learn more

10-Day Weather Forecast

Advertisements
Track Severe Weather on mobile